sensor_id;sensor_type;location;lat;lon;timestamp;temperature;humidity
14739;DHT22;7461;52.440;13.540;2022-09-30T00:01:14;7.10;99.90
14739;DHT22;7461;52.440;13.540;2022-09-30T00:03:41;7.10;99.90
14739;DHT22;7461;52.440;13.540;2022-09-30T00:06:09;7.10;99.90
14739;DHT22;7461;52.440;13.540;2022-09-30T00:08:37;7.10;99.90
14739;DHT22;7461;52.440;13.540;2022-09-30T00:11:05;7.00;99.90
14739;DHT22;7461;52.440;13.540;2022-09-30T00:13:34;7.00;99.90
14739;DHT22;7461;52.440;13.540;2022-09-30T00:16:03;7.00;99.90
14739;DHT22;7461;52.440;13.540;2022-09-30T00:18:30;6.90;99.90
14739;DHT22;7461;52.440;13.540;2022-09-30T00:20:57;6.90;99.90
14739;DHT22;7461;52.440;13.540;2022-09-30T00:23:25;6.80;99.90
14739;DHT22;7461;52.440;13.540;2022-09-30T00:25:57;6.80;99.90
14739;DHT22;7461;52.440;13.540;2022-09-30T00:28:24;6.70;99.90
14739;DHT22;7461;52.440;13.540;2022-09-30T00:30:51;6.70;99.90
14739;DHT22;7461;52.440;13.540;2022-09-30T00:33:19;6.60;99.90
14739;DHT22;7461;52.440;13.540;2022-09-30T00:35:46;6.60;99.90
14739;DHT22;7461;52.440;13.540;2022-09-30T00:38:13;6.60;99.90
14739;DHT22;7461;52.440;13.540;2022-09-30T00:40:40;6.60;99.90
14739;DHT22;7461;52.440;13.540;2022-09-30T00:43:11;6.70;99.90
14739;DHT22;7461;52.440;13.540;2022-09-30T00:45:43;6.80;99.90
14739;DHT22;7461;52.440;13.540;2022-09-30T00:48:17;6.70;99.90
14739;DHT22;7461;52.440;13.540;2022-09-30T00:50:48;6.60;99.90
14739;DHT22;7461;52.440;13.540;2022-09-30T00:53:24;6.60;99.90
14739;DHT22;7461;52.440;13.540;2022-09-30T00:55:56;6.50;99.90
14739;DHT22;7461;52.440;13.540;2022-09-30T00:58:27;6.40;99.90
14739;DHT22;7461;52.440;13.540;2022-09-30T01:00:56;6.40;99.90
14739;DHT22;7461;52.440;13.540;2022-09-30T01:03:28;6.30;99.90
14739;DHT22;7461;52.440;13.540;2022-09-30T01:05:57;6.40;99.90
14739;DHT22;7461;52.440;13.540;2022-09-30T01:08:25;6.50;99.90
14739;DHT22;7461;52.440;13.540;2022-09-30T01:10:53;6.50;99.90
14739;DHT22;7461;52.440;13.540;2022-09-30T01:13:21;6.40;99.90
14739;DHT22;7461;52.440;13.540;2022-09-30T01:16:17;6.30;99.90
14739;DHT22;7461;52.440;13.540;2022-09-30T01:18:57;6.30;99.90
14739;DHT22;7461;52.440;13.540;2022-09-30T01:21:58;6.20;99.90
14739;DHT22;7461;52.440;13.540;2022-09-30T01:24:56;6.10;99.90
14739;DHT22;7461;52.440;13.540;2022-09-30T01:27:50;6.10;99.90
14739;DHT22;7461;52.440;13.540;2022-09-30T01:30:36;6.10;99.90
14739;DHT22;7461;52.440;13.540;2022-09-30T01:33:20;6.10;99.90
14739;DHT22;7461;52.440;13.540;2022-09-30T01:36:15;6.10;99.90
14739;DHT22;7461;52.440;13.540;2022-09-30T01:38:50;6.00;99.90
14739;DHT22;7461;52.440;13.540;2022-09-30T01:41:23;6.00;99.90
14739;DHT22;7461;52.440;13.540;2022-09-30T01:43:58;6.00;99.90
14739;DHT22;7461;52.440;13.540;2022-09-30T01:46:33;6.00;99.90
14739;DHT22;7461;52.440;13.540;2022-09-30T01:49:07;6.00;99.90
14739;DHT22;7461;52.440;13.540;2022-09-30T01:51:40;6.00;99.90
14739;DHT22;7461;52.440;13.540;2022-09-30T01:54:12;6.00;99.90
14739;DHT22;7461;52.440;13.540;2022-09-30T01:56:46;5.90;99.90
14739;DHT22;7461;52.440;13.540;2022-09-30T01:59:18;5.80;99.90
14739;DHT22;7461;52.440;13.540;2022-09-30T02:01:51;5.80;99.90
14739;DHT22;7461;52.440;13.540;2022-09-30T02:04:23;5.70;99.90
14739;DHT22;7461;52.440;13.540;2022-09-30T02:06:54;5.60;99.90
14739;DHT22;7461;52.440;13.540;2022-09-30T02:09:26;5.60;99.90
14739;DHT22;7461;52.440;13.540;2022-09-30T02:11:57;5.60;99.90
14739;DHT22;7461;52.440;13.540;2022-09-30T02:14:27;5.60;99.90
14739;DHT22;7461;52.440;13.540;2022-09-30T02:17:02;5.60;99.90
14739;DHT22;7461;52.440;13.540;2022-09-30T02:19:35;5.60;99.90
14739;DHT22;7461;52.440;13.540;2022-09-30T02:22:06;5.50;99.90
14739;DHT22;7461;52.440;13.540;2022-09-30T02:24:37;5.50;99.90
14739;DHT22;7461;52.440;13.540;2022-09-30T02:27:07;5.50;99.90
14739;DHT22;7461;52.440;13.540;2022-09-30T02:29:40;5.50;99.90
14739;DHT22;7461;52.440;13.540;2022-09-30T02:32:14;5.50;99.90
14739;DHT22;7461;52.440;13.540;2022-09-30T02:34:45;5.60;99.90
14739;DHT22;7461;52.440;13.540;2022-09-30T02:37:18;5.60;99.90
14739;DHT22;7461;52.440;13.540;2022-09-30T02:39:51;5.60;99.90
14739;DHT22;7461;52.440;13.540;2022-09-30T02:42:20;5.50;99.90
14739;DHT22;7461;52.440;13.540;2022-09-30T02:44:52;5.40;99.90
14739;DHT22;7461;52.440;13.540;2022-09-30T02:47:27;5.40;99.90
14739;DHT22;7461;52.440;13.540;2022-09-30T02:49:59;5.40;99.90
14739;DHT22;7461;52.440;13.540;2022-09-30T02:52:36;5.50;99.90
14739;DHT22;7461;52.440;13.540;2022-09-30T02:55:16;5.50;99.90
14739;DHT22;7461;52.440;13.540;2022-09-30T02:57:53;5.50;99.90
14739;DHT22;7461;52.440;13.540;2022-09-30T03:00:23;5.40;99.90
14739;DHT22;7461;52.440;13.540;2022-09-30T03:02:55;5.30;99.90
14739;DHT22;7461;52.440;13.540;2022-09-30T03:05:23;5.30;99.90
14739;DHT22;7461;52.440;13.540;2022-09-30T03:07:50;5.30;99.90
14739;DHT22;7461;52.440;13.540;2022-09-30T03:10:17;5.30;99.90
14739;DHT22;7461;52.440;13.540;2022-09-30T03:13:04;5.30;99.90
14739;DHT22;7461;52.440;13.540;2022-09-30T03:15:45;5.20;99.90
14739;DHT22;7461;52.440;13.540;2022-09-30T03:18:38;5.20;99.90
14739;DHT22;7461;52.440;13.540;2022-09-30T03:21:21;5.20;99.90
14739;DHT22;7461;52.440;13.540;2022-09-30T03:24:27;5.10;99.90
14739;DHT22;7461;52.440;13.540;2022-09-30T03:27:05;5.00;99.90
14739;DHT22;7461;52.440;13.540;2022-09-30T03:29:42;5.00;99.90
14739;DHT22;7461;52.440;13.540;2022-09-30T03:32:21;5.00;99.90
14739;DHT22;7461;52.440;13.540;2022-09-30T03:35:02;5.00;99.90
14739;DHT22;7461;52.440;13.540;2022-09-30T03:37:33;5.00;99.90
14739;DHT22;7461;52.440;13.540;2022-09-30T03:40:06;5.00;99.90
14739;DHT22;7461;52.440;13.540;2022-09-30T03:42:37;4.90;99.90
14739;DHT22;7461;52.440;13.540;2022-09-30T03:45:10;4.90;99.90
14739;DHT22;7461;52.440;13.540;2022-09-30T03:47:43;4.90;99.90
14739;DHT22;7461;52.440;13.540;2022-09-30T03:50:15;4.90;99.90
14739;DHT22;7461;52.440;13.540;2022-09-30T03:52:43;4.90;99.90
14739;DHT22;7461;52.440;13.540;2022-09-30T03:55:10;5.00;99.90
14739;DHT22;7461;52.440;13.540;2022-09-30T03:57:37;5.00;99.90
14739;DHT22;7461;52.440;13.540;2022-09-30T04:00:07;5.10;99.90
14739;DHT22;7461;52.440;13.540;2022-09-30T04:02:34;5.10;99.90
14739;DHT22;7461;52.440;13.540;2022-09-30T04:05:01;5.00;99.90
14739;DHT22;7461;52.440;13.540;2022-09-30T04:07:29;5.00;99.90
14739;DHT22;7461;52.440;13.540;2022-09-30T04:09:56;5.00;99.90
14739;DHT22;7461;52.440;13.540;2022-09-30T04:12:22;5.00;99.90
14739;DHT22;7461;52.440;13.540;2022-09-30T04:14:49;5.10;99.90
14739;DHT22;7461;52.440;13.540;2022-09-30T04:17:16;5.00;99.90
14739;DHT22;7461;52.440;13.540;2022-09-30T04:19:43;5.00;99.90
14739;DHT22;7461;52.440;13.540;2022-09-30T04:22:10;5.10;99.90
14739;DHT22;7461;52.440;13.540;2022-09-30T04:24:38;5.00;99.90
14739;DHT22;7461;52.440;13.540;2022-09-30T04:27:05;4.90;99.90
14739;DHT22;7461;52.440;13.540;2022-09-30T04:29:32;4.90;99.90
14739;DHT22;7461;52.440;13.540;2022-09-30T04:31:59;4.90;99.90
14739;DHT22;7461;52.440;13.540;2022-09-30T04:34:26;4.80;99.90
14739;DHT22;7461;52.440;13.540;2022-09-30T04:36:53;4.80;99.90
14739;DHT22;7461;52.440;13.540;2022-09-30T04:39:19;4.80;99.90
14739;DHT22;7461;52.440;13.540;2022-09-30T04:41:48;4.70;99.90
14739;DHT22;7461;52.440;13.540;2022-09-30T04:44:15;4.70;99.90
14739;DHT22;7461;52.440;13.540;2022-09-30T04:46:41;4.80;99.90
14739;DHT22;7461;52.440;13.540;2022-09-30T04:49:08;4.80;99.90
14739;DHT22;7461;52.440;13.540;2022-09-30T04:51:35;4.80;99.90
14739;DHT22;7461;52.440;13.540;2022-09-30T04:54:03;4.70;99.90
14739;DHT22;7461;52.440;13.540;2022-09-30T04:56:30;4.70;99.90
14739;DHT22;7461;52.440;13.540;2022-09-30T04:58:58;4.60;99.90
14739;DHT22;7461;52.440;13.540;2022-09-30T05:01:25;4.60;99.90
14739;DHT22;7461;52.440;13.540;2022-09-30T05:03:53;4.70;99.90
14739;DHT22;7461;52.440;13.540;2022-09-30T05:06:19;4.70;99.90
14739;DHT22;7461;52.440;13.540;2022-09-30T05:08:46;4.80;99.90
14739;DHT22;7461;52.440;13.540;2022-09-30T05:11:15;4.70;99.90
14739;DHT22;7461;52.440;13.540;2022-09-30T05:13:43;4.70;99.90
14739;DHT22;7461;52.440;13.540;2022-09-30T05:16:12;4.70;99.90
14739;DHT22;7461;52.440;13.540;2022-09-30T05:18:39;4.70;99.90
14739;DHT22;7461;52.440;13.540;2022-09-30T05:21:10;4.70;99.90
14739;DHT22;7461;52.440;13.540;2022-09-30T05:23:37;4.60;99.90
14739;DHT22;7461;52.440;13.540;2022-09-30T05:26:04;4.70;99.90
14739;DHT22;7461;52.440;13.540;2022-09-30T05:28:31;4.70;99.90
14739;DHT22;7461;52.440;13.540;2022-09-30T05:31:01;4.70;99.90
14739;DHT22;7461;52.440;13.540;2022-09-30T05:33:29;4.80;99.90
14739;DHT22;7461;52.440;13.540;2022-09-30T05:35:58;4.80;99.90
14739;DHT22;7461;52.440;13.540;2022-09-30T05:38:26;4.90;99.90
14739;DHT22;7461;52.440;13.540;2022-09-30T05:40:53;4.90;99.90
14739;DHT22;7461;52.440;13.540;2022-09-30T05:43:20;4.90;99.90
14739;DHT22;7461;52.440;13.540;2022-09-30T05:45:53;4.80;99.90
14739;DHT22;7461;52.440;13.540;2022-09-30T05:48:21;4.80;99.90
14739;DHT22;7461;52.440;13.540;2022-09-30T05:50:53;4.80;99.90
14739;DHT22;7461;52.440;13.540;2022-09-30T05:53:20;4.80;99.90
14739;DHT22;7461;52.440;13.540;2022-09-30T05:55:47;4.80;99.90
14739;DHT22;7461;52.440;13.540;2022-09-30T05:58:16;4.90;99.90
14739;DHT22;7461;52.440;13.540;2022-09-30T06:00:44;4.90;99.90
14739;DHT22;7461;52.440;13.540;2022-09-30T06:03:11;5.00;99.90
14739;DHT22;7461;52.440;13.540;2022-09-30T06:05:38;5.10;99.90
14739;DHT22;7461;52.440;13.540;2022-09-30T06:08:06;5.20;99.90
14739;DHT22;7461;52.440;13.540;2022-09-30T06:10:34;5.20;99.90
14739;DHT22;7461;52.440;13.540;2022-09-30T06:13:02;5.30;99.90
14739;DHT22;7461;52.440;13.540;2022-09-30T06:15:29;5.30;99.90
14739;DHT22;7461;52.440;13.540;2022-09-30T06:17:56;5.30;99.90
14739;DHT22;7461;52.440;13.540;2022-09-30T06:20:23;5.30;99.90
14739;DHT22;7461;52.440;13.540;2022-09-30T06:22:50;5.30;99.90
14739;DHT22;7461;52.440;13.540;2022-09-30T06:25:18;5.40;99.90
14739;DHT22;7461;52.440;13.540;2022-09-30T06:27:46;5.50;99.90
14739;DHT22;7461;52.440;13.540;2022-09-30T06:30:13;5.60;99.90
14739;DHT22;7461;52.440;13.540;2022-09-30T06:32:40;5.70;99.90
14739;DHT22;7461;52.440;13.540;2022-09-30T06:35:08;5.80;99.90
14739;DHT22;7461;52.440;13.540;2022-09-30T06:37:35;5.80;99.90
14739;DHT22;7461;52.440;13.540;2022-09-30T06:40:03;5.90;99.90
14739;DHT22;7461;52.440;13.540;2022-09-30T06:42:32;6.00;99.90
14739;DHT22;7461;52.440;13.540;2022-09-30T06:44:59;6.10;99.90
14739;DHT22;7461;52.440;13.540;2022-09-30T06:47:26;6.20;99.90
14739;DHT22;7461;52.440;13.540;2022-09-30T06:49:52;6.30;99.90
14739;DHT22;7461;52.440;13.540;2022-09-30T06:52:23;6.40;99.90
14739;DHT22;7461;52.440;13.540;2022-09-30T06:54:50;6.60;99.90
14739;DHT22;7461;52.440;13.540;2022-09-30T06:57:17;6.70;99.90
14739;DHT22;7461;52.440;13.540;2022-09-30T06:59:48;6.90;99.90
14739;DHT22;7461;52.440;13.540;2022-09-30T07:02:15;7.00;99.90
14739;DHT22;7461;52.440;13.540;2022-09-30T07:04:42;7.10;99.90
14739;DHT22;7461;52.440;13.540;2022-09-30T07:07:09;7.20;99.90
14739;DHT22;7461;52.440;13.540;2022-09-30T07:09:36;7.20;99.90
14739;DHT22;7461;52.440;13.540;2022-09-30T07:12:03;7.30;99.90
14739;DHT22;7461;52.440;13.540;2022-09-30T07:14:31;7.40;99.90
14739;DHT22;7461;52.440;13.540;2022-09-30T07:17:02;7.50;99.90
14739;DHT22;7461;52.440;13.540;2022-09-30T07:19:29;7.60;99.90
14739;DHT22;7461;52.440;13.540;2022-09-30T07:21:58;7.60;99.90
14739;DHT22;7461;52.440;13.540;2022-09-30T07:24:45;7.80;99.90
14739;DHT22;7461;52.440;13.540;2022-09-30T07:27:12;7.90;99.90
14739;DHT22;7461;52.440;13.540;2022-09-30T07:29:39;8.00;99.90
14739;DHT22;7461;52.440;13.540;2022-09-30T07:32:07;8.10;99.90
14739;DHT22;7461;52.440;13.540;2022-09-30T07:34:34;8.20;99.90
14739;DHT22;7461;52.440;13.540;2022-09-30T07:37:02;8.20;99.90
14739;DHT22;7461;52.440;13.540;2022-09-30T07:39:29;8.30;99.90
14739;DHT22;7461;52.440;13.540;2022-09-30T07:41:56;8.30;99.90
14739;DHT22;7461;52.440;13.540;2022-09-30T07:44:23;8.30;99.90
14739;DHT22;7461;52.440;13.540;2022-09-30T07:46:51;8.40;99.90
14739;DHT22;7461;52.440;13.540;2022-09-30T07:49:20;8.50;99.90
14739;DHT22;7461;52.440;13.540;2022-09-30T07:51:50;8.60;99.90
14739;DHT22;7461;52.440;13.540;2022-09-30T07:54:19;8.70;99.90
14739;DHT22;7461;52.440;13.540;2022-09-30T07:56:47;8.70;99.90
14739;DHT22;7461;52.440;13.540;2022-09-30T07:59:15;8.80;99.90
14739;DHT22;7461;52.440;13.540;2022-09-30T08:01:42;8.90;99.90
14739;DHT22;7461;52.440;13.540;2022-09-30T08:04:10;9.00;99.90
14739;DHT22;7461;52.440;13.540;2022-09-30T08:06:41;9.10;99.90
14739;DHT22;7461;52.440;13.540;2022-09-30T08:09:10;9.30;99.90
14739;DHT22;7461;52.440;13.540;2022-09-30T08:11:37;9.40;99.90
14739;DHT22;7461;52.440;13.540;2022-09-30T08:14:05;9.40;99.90
14739;DHT22;7461;52.440;13.540;2022-09-30T08:16:32;9.50;99.90
14739;DHT22;7461;52.440;13.540;2022-09-30T08:19:01;9.60;99.90
14739;DHT22;7461;52.440;13.540;2022-09-30T08:21:28;9.70;99.90
14739;DHT22;7461;52.440;13.540;2022-09-30T08:23:57;9.70;99.90
14739;DHT22;7461;52.440;13.540;2022-09-30T08:26:23;9.90;99.90
14739;DHT22;7461;52.440;13.540;2022-09-30T08:28:50;10.00;99.90
14739;DHT22;7461;52.440;13.540;2022-09-30T08:31:19;10.20;99.90
14739;DHT22;7461;52.440;13.540;2022-09-30T08:33:46;10.30;99.90
14739;DHT22;7461;52.440;13.540;2022-09-30T08:36:15;10.40;99.90
14739;DHT22;7461;52.440;13.540;2022-09-30T08:38:42;10.50;99.90
14739;DHT22;7461;52.440;13.540;2022-09-30T08:41:22;10.60;99.90
14739;DHT22;7461;52.440;13.540;2022-09-30T08:44:00;10.70;99.90
14739;DHT22;7461;52.440;13.540;2022-09-30T08:46:37;10.90;99.90
14739;DHT22;7461;52.440;13.540;2022-09-30T08:49:24;11.00;99.90
14739;DHT22;7461;52.440;13.540;2022-09-30T08:51:59;11.20;99.90
14739;DHT22;7461;52.440;13.540;2022-09-30T08:54:30;11.40;99.90
14739;DHT22;7461;52.440;13.540;2022-09-30T08:57:01;11.70;99.90
14739;DHT22;7461;52.440;13.540;2022-09-30T08:59:31;12.00;99.90
14739;DHT22;7461;52.440;13.540;2022-09-30T09:02:09;12.30;99.90
14739;DHT22;7461;52.440;13.540;2022-09-30T09:04:38;12.50;99.90
14739;DHT22;7461;52.440;13.540;2022-09-30T09:07:09;12.60;99.90
14739;DHT22;7461;52.440;13.540;2022-09-30T09:09:47;12.70;99.90
14739;DHT22;7461;52.440;13.540;2022-09-30T09:12:27;12.70;99.90
14739;DHT22;7461;52.440;13.540;2022-09-30T09:15:15;12.90;99.90
14739;DHT22;7461;52.440;13.540;2022-09-30T09:18:07;13.10;99.90
14739;DHT22;7461;52.440;13.540;2022-09-30T09:20:44;13.40;99.90
14739;DHT22;7461;52.440;13.540;2022-09-30T09:23:13;13.60;99.90
14739;DHT22;7461;52.440;13.540;2022-09-30T09:25:40;14.00;99.90
14739;DHT22;7461;52.440;13.540;2022-09-30T09:28:21;14.10;99.90
14739;DHT22;7461;52.440;13.540;2022-09-30T09:30:55;14.30;99.90
14739;DHT22;7461;52.440;13.540;2022-09-30T09:33:27;14.60;99.90
14739;DHT22;7461;52.440;13.540;2022-09-30T09:36:01;14.70;99.90
14739;DHT22;7461;52.440;13.540;2022-09-30T09:38:37;15.00;99.90
14739;DHT22;7461;52.440;13.540;2022-09-30T09:41:19;15.10;99.90
14739;DHT22;7461;52.440;13.540;2022-09-30T09:43:56;15.30;99.90
14739;DHT22;7461;52.440;13.540;2022-09-30T09:46:28;15.50;99.90
14739;DHT22;7461;52.440;13.540;2022-09-30T09:49:26;15.70;99.90
14739;DHT22;7461;52.440;13.540;2022-09-30T09:54:58;16.10;99.90
14739;DHT22;7461;52.440;13.540;2022-09-30T09:57:26;16.40;99.90
14739;DHT22;7461;52.440;13.540;2022-09-30T09:59:58;16.50;99.90
14739;DHT22;7461;52.440;13.540;2022-09-30T10:02:58;16.70;99.90
14739;DHT22;7461;52.440;13.540;2022-09-30T10:05:27;16.90;99.90
14739;DHT22;7461;52.440;13.540;2022-09-30T10:08:08;17.00;99.90
14739;DHT22;7461;52.440;13.540;2022-09-30T10:10:46;17.00;99.90
14739;DHT22;7461;52.440;13.540;2022-09-30T10:13:19;17.10;99.90
14739;DHT22;7461;52.440;13.540;2022-09-30T10:15:48;17.00;99.90
14739;DHT22;7461;52.440;13.540;2022-09-30T10:18:20;16.70;99.90
14739;DHT22;7461;52.440;13.540;2022-09-30T10:20:51;16.90;99.90
14739;DHT22;7461;52.440;13.540;2022-09-30T10:23:21;17.10;99.90
14739;DHT22;7461;52.440;13.540;2022-09-30T10:25:54;17.20;99.90
14739;DHT22;7461;52.440;13.540;2022-09-30T10:28:24;17.40;99.90
14739;DHT22;7461;52.440;13.540;2022-09-30T10:30:56;17.40;99.90
14739;DHT22;7461;52.440;13.540;2022-09-30T10:33:28;17.50;99.90
14739;DHT22;7461;52.440;13.540;2022-09-30T10:36:02;17.50;99.90
14739;DHT22;7461;52.440;13.540;2022-09-30T10:38:31;17.30;99.90
14739;DHT22;7461;52.440;13.540;2022-09-30T10:41:00;17.00;99.90
14739;DHT22;7461;52.440;13.540;2022-09-30T10:43:30;17.10;99.90
14739;DHT22;7461;52.440;13.540;2022-09-30T10:46:00;17.20;99.90
14739;DHT22;7461;52.440;13.540;2022-09-30T10:48:32;17.20;99.90
14739;DHT22;7461;52.440;13.540;2022-09-30T10:50:59;17.10;99.90
14739;DHT22;7461;52.440;13.540;2022-09-30T10:53:28;17.20;99.90
14739;DHT22;7461;52.440;13.540;2022-09-30T10:55:56;17.30;99.90
14739;DHT22;7461;52.440;13.540;2022-09-30T10:58:35;17.30;99.90
14739;DHT22;7461;52.440;13.540;2022-09-30T11:01:16;17.30;99.90
14739;DHT22;7461;52.440;13.540;2022-09-30T11:03:52;17.20;99.90
14739;DHT22;7461;52.440;13.540;2022-09-30T11:06:21;17.00;99.90
14739;DHT22;7461;52.440;13.540;2022-09-30T11:08:54;17.00;99.90
14739;DHT22;7461;52.440;13.540;2022-09-30T11:11:26;17.10;99.90
14739;DHT22;7461;52.440;13.540;2022-09-30T11:13:56;17.10;99.90
14739;DHT22;7461;52.440;13.540;2022-09-30T11:16:31;17.10;99.90
14739;DHT22;7461;52.440;13.540;2022-09-30T11:19:03;17.00;99.90
14739;DHT22;7461;52.440;13.540;2022-09-30T11:21:36;17.10;99.90
14739;DHT22;7461;52.440;13.540;2022-09-30T11:24:19;17.10;99.90
14739;DHT22;7461;52.440;13.540;2022-09-30T11:26:54;17.10;99.90
14739;DHT22;7461;52.440;13.540;2022-09-30T11:29:41;17.00;99.90
14739;DHT22;7461;52.440;13.540;2022-09-30T11:32:21;16.90;99.90
14739;DHT22;7461;52.440;13.540;2022-09-30T11:34:58;17.00;99.90
14739;DHT22;7461;52.440;13.540;2022-09-30T11:37:41;17.00;99.90
14739;DHT22;7461;52.440;13.540;2022-09-30T11:40:36;17.00;99.90
14739;DHT22;7461;52.440;13.540;2022-09-30T11:43:10;17.00;99.90
14739;DHT22;7461;52.440;13.540;2022-09-30T11:46:08;17.00;99.90
14739;DHT22;7461;52.440;13.540;2022-09-30T11:48:48;17.00;99.90
14739;DHT22;7461;52.440;13.540;2022-09-30T11:51:22;17.00;99.90
14739;DHT22;7461;52.440;13.540;2022-09-30T11:53:59;17.10;99.90
14739;DHT22;7461;52.440;13.540;2022-09-30T11:56:39;17.10;99.90
14739;DHT22;7461;52.440;13.540;2022-09-30T11:59:13;17.20;99.90
14739;DHT22;7461;52.440;13.540;2022-09-30T12:01:43;17.20;99.90
14739;DHT22;7461;52.440;13.540;2022-09-30T12:04:14;17.20;99.90
14739;DHT22;7461;52.440;13.540;2022-09-30T12:06:47;17.20;99.90
14739;DHT22;7461;52.440;13.540;2022-09-30T12:09:19;17.10;99.90
14739;DHT22;7461;52.440;13.540;2022-09-30T12:11:52;17.20;99.90
14739;DHT22;7461;52.440;13.540;2022-09-30T12:14:24;17.20;99.90
14739;DHT22;7461;52.440;13.540;2022-09-30T12:16:52;17.20;99.90
14739;DHT22;7461;52.440;13.540;2022-09-30T12:19:27;17.20;99.90
14739;DHT22;7461;52.440;13.540;2022-09-30T12:21:58;17.10;99.90
14739;DHT22;7461;52.440;13.540;2022-09-30T12:24:31;17.00;99.90
14739;DHT22;7461;52.440;13.540;2022-09-30T12:27:00;17.10;99.90
14739;DHT22;7461;52.440;13.540;2022-09-30T12:29:30;17.20;99.90
14739;DHT22;7461;52.440;13.540;2022-09-30T12:32:56;17.30;99.90
14739;DHT22;7461;52.440;13.540;2022-09-30T12:35:43;17.20;99.90
14739;DHT22;7461;52.440;13.540;2022-09-30T12:38:30;17.30;99.90
14739;DHT22;7461;52.440;13.540;2022-09-30T12:41:04;17.30;99.90
14739;DHT22;7461;52.440;13.540;2022-09-30T12:43:59;17.40;99.90
14739;DHT22;7461;52.440;13.540;2022-09-30T12:46:44;17.40;99.90
14739;DHT22;7461;52.440;13.540;2022-09-30T12:49:17;17.50;99.90
14739;DHT22;7461;52.440;13.540;2022-09-30T12:51:49;17.40;99.90
14739;DHT22;7461;52.440;13.540;2022-09-30T12:54:19;17.40;99.90
14739;DHT22;7461;52.440;13.540;2022-09-30T12:56:53;17.40;99.90
14739;DHT22;7461;52.440;13.540;2022-09-30T12:59:25;17.30;99.90
14739;DHT22;7461;52.440;13.540;2022-09-30T13:01:53;17.30;99.90
14739;DHT22;7461;52.440;13.540;2022-09-30T13:04:32;17.40;99.90
14739;DHT22;7461;52.440;13.540;2022-09-30T13:07:22;17.40;99.90
14739;DHT22;7461;52.440;13.540;2022-09-30T13:10:00;17.50;99.90
14739;DHT22;7461;52.440;13.540;2022-09-30T13:12:39;17.50;99.90
14739;DHT22;7461;52.440;13.540;2022-09-30T13:21:23;17.40;99.90
14739;DHT22;7461;52.440;13.540;2022-09-30T13:23:53;17.40;99.90
14739;DHT22;7461;52.440;13.540;2022-09-30T13:26:36;17.30;99.90
14739;DHT22;7461;52.440;13.540;2022-09-30T13:29:26;17.20;99.90
14739;DHT22;7461;52.440;13.540;2022-09-30T13:32:07;17.30;99.90
14739;DHT22;7461;52.440;13.540;2022-09-30T13:34:52;17.30;99.90
14739;DHT22;7461;52.440;13.540;2022-09-30T13:37:32;17.30;99.90
14739;DHT22;7461;52.440;13.540;2022-09-30T13:40:02;17.10;99.90
14739;DHT22;7461;52.440;13.540;2022-09-30T13:42:35;17.10;99.90
14739;DHT22;7461;52.440;13.540;2022-09-30T13:45:11;17.10;99.90
14739;DHT22;7461;52.440;13.540;2022-09-30T13:47:43;17.20;99.90
14739;DHT22;7461;52.440;13.540;2022-09-30T13:50:17;17.20;99.90
14739;DHT22;7461;52.440;13.540;2022-09-30T13:52:47;17.20;99.90
14739;DHT22;7461;52.440;13.540;2022-09-30T13:55:21;17.10;99.90
14739;DHT22;7461;52.440;13.540;2022-09-30T13:57:58;17.00;99.90
14739;DHT22;7461;52.440;13.540;2022-09-30T14:00:38;17.00;99.90
14739;DHT22;7461;52.440;13.540;2022-09-30T14:06:09;16.80;99.90
14739;DHT22;7461;52.440;13.540;2022-09-30T14:11:57;16.60;99.90
14739;DHT22;7461;52.440;13.540;2022-09-30T14:17:43;16.30;99.90
14739;DHT22;7461;52.440;13.540;2022-09-30T14:20:26;16.20;99.90
14739;DHT22;7461;52.440;13.540;2022-09-30T14:22:55;16.30;99.90
14739;DHT22;7461;52.440;13.540;2022-09-30T14:25:22;16.40;99.90
14739;DHT22;7461;52.440;13.540;2022-09-30T14:27:57;16.40;99.90
14739;DHT22;7461;52.440;13.540;2022-09-30T14:30:30;16.50;99.90
14739;DHT22;7461;52.440;13.540;2022-09-30T14:33:01;16.50;99.90
14739;DHT22;7461;52.440;13.540;2022-09-30T14:35:32;16.60;99.90
14739;DHT22;7461;52.440;13.540;2022-09-30T14:38:01;16.60;99.90
14739;DHT22;7461;52.440;13.540;2022-09-30T14:40:30;16.60;99.90
14739;DHT22;7461;52.440;13.540;2022-09-30T14:43:02;16.60;99.90
14739;DHT22;7461;52.440;13.540;2022-09-30T14:45:31;16.60;99.90
14739;DHT22;7461;52.440;13.540;2022-09-30T14:48:01;16.70;99.90
14739;DHT22;7461;52.440;13.540;2022-09-30T14:50:35;16.60;99.90
14739;DHT22;7461;52.440;13.540;2022-09-30T14:53:03;16.60;99.90
14739;DHT22;7461;52.440;13.540;2022-09-30T14:55:32;16.60;99.90
14739;DHT22;7461;52.440;13.540;2022-09-30T14:58:28;16.60;99.90
14739;DHT22;7461;52.440;13.540;2022-09-30T15:01:01;16.60;99.90
14739;DHT22;7461;52.440;13.540;2022-09-30T15:03:29;16.60;99.90
14739;DHT22;7461;52.440;13.540;2022-09-30T15:05:58;16.50;99.90
14739;DHT22;7461;52.440;13.540;2022-09-30T15:08:26;16.50;99.90
14739;DHT22;7461;52.440;13.540;2022-09-30T15:10:54;16.40;99.90
14739;DHT22;7461;52.440;13.540;2022-09-30T15:13:23;16.50;99.90
14739;DHT22;7461;52.440;13.540;2022-09-30T15:15:52;16.40;99.90
14739;DHT22;7461;52.440;13.540;2022-09-30T15:18:26;16.40;99.90
14739;DHT22;7461;52.440;13.540;2022-09-30T15:20:55;16.30;99.90
14739;DHT22;7461;52.440;13.540;2022-09-30T15:23:26;16.30;99.90
14739;DHT22;7461;52.440;13.540;2022-09-30T15:25:54;16.20;99.90
14739;DHT22;7461;52.440;13.540;2022-09-30T15:28:55;16.10;99.90
14739;DHT22;7461;52.440;13.540;2022-09-30T15:31:26;16.00;99.90
14739;DHT22;7461;52.440;13.540;2022-09-30T15:34:04;15.90;99.90
14739;DHT22;7461;52.440;13.540;2022-09-30T15:36:34;15.90;99.90
14739;DHT22;7461;52.440;13.540;2022-09-30T15:39:02;15.90;99.90
14739;DHT22;7461;52.440;13.540;2022-09-30T15:41:30;15.90;99.90
14739;DHT22;7461;52.440;13.540;2022-09-30T15:44:03;15.90;99.90
14739;DHT22;7461;52.440;13.540;2022-09-30T15:46:33;15.90;99.90
14739;DHT22;7461;52.440;13.540;2022-09-30T15:49:04;15.90;99.90
14739;DHT22;7461;52.440;13.540;2022-09-30T15:51:34;15.90;99.90
14739;DHT22;7461;52.440;13.540;2022-09-30T15:54:25;15.90;99.90
14739;DHT22;7461;52.440;13.540;2022-09-30T15:56:53;15.90;99.90
14739;DHT22;7461;52.440;13.540;2022-09-30T15:59:20;15.90;99.90
14739;DHT22;7461;52.440;13.540;2022-09-30T16:01:50;15.90;99.90
14739;DHT22;7461;52.440;13.540;2022-09-30T16:04:22;15.80;99.90
14739;DHT22;7461;52.440;13.540;2022-09-30T16:06:52;15.70;99.90
14739;DHT22;7461;52.440;13.540;2022-09-30T16:09:22;15.60;99.90
14739;DHT22;7461;52.440;13.540;2022-09-30T16:12:00;15.50;99.90
14739;DHT22;7461;52.440;13.540;2022-09-30T16:14:32;15.40;99.90
14739;DHT22;7461;52.440;13.540;2022-09-30T16:17:02;15.20;99.90
14739;DHT22;7461;52.440;13.540;2022-09-30T16:19:30;15.10;99.90
14739;DHT22;7461;52.440;13.540;2022-09-30T16:21:58;15.10;99.90
14739;DHT22;7461;52.440;13.540;2022-09-30T16:24:47;14.90;99.90
14739;DHT22;7461;52.440;13.540;2022-09-30T16:27:25;14.80;99.90
14739;DHT22;7461;52.440;13.540;2022-09-30T16:29:54;14.70;99.90
14739;DHT22;7461;52.440;13.540;2022-09-30T16:32:23;14.60;99.90